Terminal Aerodrome Forecast
Issued by NWS Wilmington, OH

Current Version | Previous Version | Graphics & Text | Print | Product List | Glossary On
Versions: 1 2 3 4 5 6 7 8 9 10 11 12 13 14 15 16 17 18 19 20 21 22 23 24
000
FTUS41 KILN 272116 AAF
TAFILN
TAF AMD
KILN 272116Z 2721/2818 28009KT P6SM VCSH BKN040 OVC050
      TEMPO 2721/2722 4SM SHRA BKN015
     FM280200 21005KT P6SM VCSH OVC035
     FM280400 21005KT P6SM VCSH OVC025
     FM280800 29005KT 2SM BR VCSH OVC008
     FM281200 34006KT 3SM BR OVC006
     FM281600 01008KT P6SM OVC013=

USA.gov is the U.S. government's official web portal to all federal, state and local government web resources and services.